sensor_id;sensor_type;location;lat;lon;timestamp;P1;durP1;ratioP1;P2;durP2;ratioP2
4112;SDS011;2070;51.042;7.056;2023-06-10T00:01:17;11.67;;;6.53;;
4112;SDS011;2070;51.042;7.056;2023-06-10T00:03:42;11.70;;;6.53;;
4112;SDS011;2070;51.042;7.056;2023-06-10T00:06:08;13.27;;;7.30;;
4112;SDS011;2070;51.042;7.056;2023-06-10T00:08:33;12.00;;;6.07;;
4112;SDS011;2070;51.042;7.056;2023-06-10T00:10:58;9.60;;;7.37;;
4112;SDS011;2070;51.042;7.056;2023-06-10T00:13:24;14.23;;;7.50;;
4112;SDS011;2070;51.042;7.056;2023-06-10T00:15:49;11.30;;;6.93;;
4112;SDS011;2070;51.042;7.056;2023-06-10T00:18:14;12.67;;;7.23;;
4112;SDS011;2070;51.042;7.056;2023-06-10T00:20:40;11.90;;;7.47;;
4112;SDS011;2070;51.042;7.056;2023-06-10T00:23:05;13.90;;;7.90;;
4112;SDS011;2070;51.042;7.056;2023-06-10T00:25:33;15.70;;;7.13;;
4112;SDS011;2070;51.042;7.056;2023-06-10T00:27:58;12.13;;;6.37;;
4112;SDS011;2070;51.042;7.056;2023-06-10T00:30:24;11.47;;;6.63;;
4112;SDS011;2070;51.042;7.056;2023-06-10T00:32:49;14.77;;;7.20;;
4112;SDS011;2070;51.042;7.056;2023-06-10T00:35:14;15.50;;;6.80;;
4112;SDS011;2070;51.042;7.056;2023-06-10T00:37:39;14.03;;;6.97;;
4112;SDS011;2070;51.042;7.056;2023-06-10T00:40:05;13.30;;;7.23;;
4112;SDS011;2070;51.042;7.056;2023-06-10T00:42:30;14.10;;;6.23;;
4112;SDS011;2070;51.042;7.056;2023-06-10T00:44:56;9.47;;;6.43;;
4112;SDS011;2070;51.042;7.056;2023-06-10T00:47:21;12.73;;;6.43;;
4112;SDS011;2070;51.042;7.056;2023-06-10T00:49:47;12.70;;;7.70;;
4112;SDS011;2070;51.042;7.056;2023-06-10T00:52:12;24.20;;;7.03;;
4112;SDS011;2070;51.042;7.056;2023-06-10T00:54:38;13.47;;;7.40;;
4112;SDS011;2070;51.042;7.056;2023-06-10T00:57:04;26.83;;;7.83;;
4112;SDS011;2070;51.042;7.056;2023-06-10T00:59:30;11.63;;;6.30;;
4112;SDS011;2070;51.042;7.056;2023-06-10T01:01:56;14.27;;;8.10;;
4112;SDS011;2070;51.042;7.056;2023-06-10T01:04:21;12.63;;;7.03;;
4112;SDS011;2070;51.042;7.056;2023-06-10T01:09:29;13.33;;;7.30;;
4112;SDS011;2070;51.042;7.056;2023-06-10T01:14:25;15.37;;;7.17;;
4112;SDS011;2070;51.042;7.056;2023-06-10T01:16:51;11.83;;;7.03;;
4112;SDS011;2070;51.042;7.056;2023-06-10T01:19:17;14.70;;;7.03;;
4112;SDS011;2070;51.042;7.056;2023-06-10T01:21:42;14.40;;;6.67;;
4112;SDS011;2070;51.042;7.056;2023-06-10T01:24:13;15.07;;;7.13;;
4112;SDS011;2070;51.042;7.056;2023-06-10T01:26:38;13.13;;;7.40;;
4112;SDS011;2070;51.042;7.056;2023-06-10T01:29:17;12.73;;;7.80;;
4112;SDS011;2070;51.042;7.056;2023-06-10T01:31:48;16.10;;;7.27;;
4112;SDS011;2070;51.042;7.056;2023-06-10T01:34:16;10.47;;;6.60;;
4112;SDS011;2070;51.042;7.056;2023-06-10T01:36:43;12.37;;;7.40;;
4112;SDS011;2070;51.042;7.056;2023-06-10T01:39:10;15.40;;;7.50;;
4112;SDS011;2070;51.042;7.056;2023-06-10T01:41:36;13.23;;;8.27;;
4112;SDS011;2070;51.042;7.056;2023-06-10T01:44:01;14.30;;;7.80;;
4112;SDS011;2070;51.042;7.056;2023-06-10T01:46:27;15.90;;;7.73;;
4112;SDS011;2070;51.042;7.056;2023-06-10T01:48:52;9.90;;;5.93;;
4112;SDS011;2070;51.042;7.056;2023-06-10T01:51:17;10.07;;;6.13;;
4112;SDS011;2070;51.042;7.056;2023-06-10T01:53:43;13.87;;;6.70;;
4112;SDS011;2070;51.042;7.056;2023-06-10T01:56:08;8.60;;;6.13;;
4112;SDS011;2070;51.042;7.056;2023-06-10T01:58:33;16.70;;;7.33;;
4112;SDS011;2070;51.042;7.056;2023-06-10T02:00:58;18.37;;;7.37;;
4112;SDS011;2070;51.042;7.056;2023-06-10T02:03:23;10.87;;;6.90;;
4112;SDS011;2070;51.042;7.056;2023-06-10T02:05:49;10.83;;;6.73;;
4112;SDS011;2070;51.042;7.056;2023-06-10T02:08:14;15.37;;;6.90;;
4112;SDS011;2070;51.042;7.056;2023-06-10T02:10:39;14.93;;;8.50;;
4112;SDS011;2070;51.042;7.056;2023-06-10T02:13:05;12.30;;;6.67;;
4112;SDS011;2070;51.042;7.056;2023-06-10T02:15:30;14.33;;;7.13;;
4112;SDS011;2070;51.042;7.056;2023-06-10T02:17:56;14.67;;;8.20;;
4112;SDS011;2070;51.042;7.056;2023-06-10T02:22:54;9.03;;;7.00;;
4112;SDS011;2070;51.042;7.056;2023-06-10T02:25:19;10.47;;;7.47;;
4112;SDS011;2070;51.042;7.056;2023-06-10T02:27:45;6.90;;;6.13;;
4112;SDS011;2070;51.042;7.056;2023-06-10T02:30:10;15.50;;;7.50;;
4112;SDS011;2070;51.042;7.056;2023-06-10T02:32:36;10.63;;;7.20;;
4112;SDS011;2070;51.042;7.056;2023-06-10T02:35:01;13.23;;;6.60;;
4112;SDS011;2070;51.042;7.056;2023-06-10T02:37:26;12.33;;;6.73;;
4112;SDS011;2070;51.042;7.056;2023-06-10T02:39:51;12.87;;;5.87;;
4112;SDS011;2070;51.042;7.056;2023-06-10T02:42:16;8.40;;;6.70;;
4112;SDS011;2070;51.042;7.056;2023-06-10T02:44:42;11.83;;;6.90;;
4112;SDS011;2070;51.042;7.056;2023-06-10T02:47:07;10.33;;;7.23;;
4112;SDS011;2070;51.042;7.056;2023-06-10T02:49:32;9.10;;;6.50;;
4112;SDS011;2070;51.042;7.056;2023-06-10T02:51:57;12.60;;;7.47;;
4112;SDS011;2070;51.042;7.056;2023-06-10T02:54:23;10.70;;;6.80;;
4112;SDS011;2070;51.042;7.056;2023-06-10T02:56:49;10.97;;;7.33;;
4112;SDS011;2070;51.042;7.056;2023-06-10T02:59:14;11.67;;;7.20;;
4112;SDS011;2070;51.042;7.056;2023-06-10T03:01:40;11.20;;;7.60;;
4112;SDS011;2070;51.042;7.056;2023-06-10T03:04:06;10.23;;;7.43;;
4112;SDS011;2070;51.042;7.056;2023-06-10T03:06:31;6.57;;;5.90;;
4112;SDS011;2070;51.042;7.056;2023-06-10T03:08:58;9.77;;;7.90;;
4112;SDS011;2070;51.042;7.056;2023-06-10T03:11:23;10.53;;;7.73;;
4112;SDS011;2070;51.042;7.056;2023-06-10T03:13:48;9.90;;;7.20;;
4112;SDS011;2070;51.042;7.056;2023-06-10T03:16:13;9.07;;;7.20;;
4112;SDS011;2070;51.042;7.056;2023-06-10T03:18:39;12.33;;;6.60;;
4112;SDS011;2070;51.042;7.056;2023-06-10T03:21:04;9.37;;;7.60;;
4112;SDS011;2070;51.042;7.056;2023-06-10T03:23:29;10.47;;;7.07;;
4112;SDS011;2070;51.042;7.056;2023-06-10T03:25:55;9.23;;;7.57;;
4112;SDS011;2070;51.042;7.056;2023-06-10T03:28:20;8.67;;;7.47;;
4112;SDS011;2070;51.042;7.056;2023-06-10T03:30:46;9.77;;;7.40;;
4112;SDS011;2070;51.042;7.056;2023-06-10T03:33:11;12.03;;;8.80;;
4112;SDS011;2070;51.042;7.056;2023-06-10T03:35:37;12.67;;;7.70;;
4112;SDS011;2070;51.042;7.056;2023-06-10T03:38:02;11.67;;;8.30;;
4112;SDS011;2070;51.042;7.056;2023-06-10T03:40:27;8.60;;;7.10;;
4112;SDS011;2070;51.042;7.056;2023-06-10T03:42:52;10.90;;;8.53;;
4112;SDS011;2070;51.042;7.056;2023-06-10T03:45:18;13.67;;;8.37;;
4112;SDS011;2070;51.042;7.056;2023-06-10T03:47:43;9.17;;;7.70;;
4112;SDS011;2070;51.042;7.056;2023-06-10T03:50:08;10.67;;;7.80;;
4112;SDS011;2070;51.042;7.056;2023-06-10T03:52:35;11.63;;;9.13;;
4112;SDS011;2070;51.042;7.056;2023-06-10T03:55:00;12.80;;;8.80;;
4112;SDS011;2070;51.042;7.056;2023-06-10T03:57:25;10.93;;;7.80;;
4112;SDS011;2070;51.042;7.056;2023-06-10T03:59:51;21.60;;;8.73;;
4112;SDS011;2070;51.042;7.056;2023-06-10T04:02:16;11.17;;;7.20;;
4112;SDS011;2070;51.042;7.056;2023-06-10T04:04:41;9.00;;;7.20;;
4112;SDS011;2070;51.042;7.056;2023-06-10T04:07:07;13.17;;;8.10;;
4112;SDS011;2070;51.042;7.056;2023-06-10T04:09:34;12.60;;;8.30;;
4112;SDS011;2070;51.042;7.056;2023-06-10T04:11:59;10.00;;;7.77;;
4112;SDS011;2070;51.042;7.056;2023-06-10T04:14:24;13.43;;;8.30;;
4112;SDS011;2070;51.042;7.056;2023-06-10T04:16:49;8.93;;;7.53;;
4112;SDS011;2070;51.042;7.056;2023-06-10T04:19:15;7.20;;;6.40;;
4112;SDS011;2070;51.042;7.056;2023-06-10T04:21:41;8.70;;;7.47;;
4112;SDS011;2070;51.042;7.056;2023-06-10T04:24:06;18.53;;;7.60;;
4112;SDS011;2070;51.042;7.056;2023-06-10T04:26:32;8.60;;;6.50;;
4112;SDS011;2070;51.042;7.056;2023-06-10T04:28:57;9.47;;;6.50;;
4112;SDS011;2070;51.042;7.056;2023-06-10T04:31:22;10.77;;;7.50;;
4112;SDS011;2070;51.042;7.056;2023-06-10T04:33:48;9.63;;;7.60;;
4112;SDS011;2070;51.042;7.056;2023-06-10T04:36:13;11.13;;;6.73;;
4112;SDS011;2070;51.042;7.056;2023-06-10T04:38:39;10.90;;;7.87;;
4112;SDS011;2070;51.042;7.056;2023-06-10T04:41:05;15.30;;;7.60;;
4112;SDS011;2070;51.042;7.056;2023-06-10T04:43:30;9.30;;;7.47;;
4112;SDS011;2070;51.042;7.056;2023-06-10T04:45:56;13.03;;;8.90;;
4112;SDS011;2070;51.042;7.056;2023-06-10T04:48:21;15.00;;;7.53;;
4112;SDS011;2070;51.042;7.056;2023-06-10T04:50:48;10.47;;;7.43;;
4112;SDS011;2070;51.042;7.056;2023-06-10T04:53:13;9.63;;;6.20;;
4112;SDS011;2070;51.042;7.056;2023-06-10T04:55:40;10.00;;;7.10;;
4112;SDS011;2070;51.042;7.056;2023-06-10T04:58:05;12.73;;;7.67;;
4112;SDS011;2070;51.042;7.056;2023-06-10T05:00:30;11.37;;;7.60;;
4112;SDS011;2070;51.042;7.056;2023-06-10T05:02:55;8.60;;;7.07;;
4112;SDS011;2070;51.042;7.056;2023-06-10T05:05:21;9.53;;;7.03;;
4112;SDS011;2070;51.042;7.056;2023-06-10T05:07:46;12.20;;;8.33;;
4112;SDS011;2070;51.042;7.056;2023-06-10T05:10:11;11.10;;;7.60;;
4112;SDS011;2070;51.042;7.056;2023-06-10T05:12:40;11.47;;;7.50;;
4112;SDS011;2070;51.042;7.056;2023-06-10T05:15:06;11.40;;;7.70;;
4112;SDS011;2070;51.042;7.056;2023-06-10T05:17:31;10.30;;;6.70;;
4112;SDS011;2070;51.042;7.056;2023-06-10T05:19:56;16.87;;;7.60;;
4112;SDS011;2070;51.042;7.056;2023-06-10T05:22:22;14.93;;;8.43;;
4112;SDS011;2070;51.042;7.056;2023-06-10T05:24:49;12.30;;;8.00;;
4112;SDS011;2070;51.042;7.056;2023-06-10T05:27:16;13.67;;;7.30;;
4112;SDS011;2070;51.042;7.056;2023-06-10T05:29:41;11.50;;;7.57;;
4112;SDS011;2070;51.042;7.056;2023-06-10T05:32:06;10.93;;;7.40;;
4112;SDS011;2070;51.042;7.056;2023-06-10T05:34:31;21.33;;;7.50;;
4112;SDS011;2070;51.042;7.056;2023-06-10T05:36:57;11.07;;;6.90;;
4112;SDS011;2070;51.042;7.056;2023-06-10T05:39:22;14.57;;;8.00;;
4112;SDS011;2070;51.042;7.056;2023-06-10T05:41:47;17.23;;;8.23;;
4112;SDS011;2070;51.042;7.056;2023-06-10T05:44:12;15.40;;;8.00;;
4112;SDS011;2070;51.042;7.056;2023-06-10T05:46:37;11.33;;;6.67;;
4112;SDS011;2070;51.042;7.056;2023-06-10T05:49:03;16.07;;;8.50;;
4112;SDS011;2070;51.042;7.056;2023-06-10T05:51:28;10.73;;;6.30;;
4112;SDS011;2070;51.042;7.056;2023-06-10T05:53:53;10.50;;;6.63;;
4112;SDS011;2070;51.042;7.056;2023-06-10T05:56:19;18.03;;;7.53;;
4112;SDS011;2070;51.042;7.056;2023-06-10T05:58:45;9.23;;;6.97;;
4112;SDS011;2070;51.042;7.056;2023-06-10T06:01:10;10.33;;;6.53;;
4112;SDS011;2070;51.042;7.056;2023-06-10T06:03:35;11.57;;;6.87;;
4112;SDS011;2070;51.042;7.056;2023-06-10T06:06:01;11.93;;;6.80;;
4112;SDS011;2070;51.042;7.056;2023-06-10T06:08:26;16.10;;;6.43;;
4112;SDS011;2070;51.042;7.056;2023-06-10T06:10:51;12.30;;;5.90;;
4112;SDS011;2070;51.042;7.056;2023-06-10T06:13:16;11.30;;;6.07;;
4112;SDS011;2070;51.042;7.056;2023-06-10T06:15:41;12.87;;;6.47;;
4112;SDS011;2070;51.042;7.056;2023-06-10T06:18:07;10.43;;;6.03;;
4112;SDS011;2070;51.042;7.056;2023-06-10T06:20:32;11.97;;;5.33;;
4112;SDS011;2070;51.042;7.056;2023-06-10T06:22:57;9.43;;;5.87;;
4112;SDS011;2070;51.042;7.056;2023-06-10T06:25:22;15.20;;;6.63;;
4112;SDS011;2070;51.042;7.056;2023-06-10T06:27:48;10.10;;;6.17;;
4112;SDS011;2070;51.042;7.056;2023-06-10T06:30:13;12.00;;;6.53;;
4112;SDS011;2070;51.042;7.056;2023-06-10T06:32:38;10.23;;;5.90;;
4112;SDS011;2070;51.042;7.056;2023-06-10T06:35:04;16.03;;;6.90;;
4112;SDS011;2070;51.042;7.056;2023-06-10T06:37:30;8.30;;;5.40;;
4112;SDS011;2070;51.042;7.056;2023-06-10T06:39:57;13.23;;;6.20;;
4112;SDS011;2070;51.042;7.056;2023-06-10T06:42:22;21.23;;;10.40;;
4112;SDS011;2070;51.042;7.056;2023-06-10T06:44:48;13.83;;;7.00;;
4112;SDS011;2070;51.042;7.056;2023-06-10T06:47:13;12.17;;;5.80;;
4112;SDS011;2070;51.042;7.056;2023-06-10T06:49:38;10.90;;;5.50;;
4112;SDS011;2070;51.042;7.056;2023-06-10T06:52:03;15.43;;;6.30;;
4112;SDS011;2070;51.042;7.056;2023-06-10T06:54:29;13.03;;;6.30;;
4112;SDS011;2070;51.042;7.056;2023-06-10T06:56:54;10.87;;;5.53;;
4112;SDS011;2070;51.042;7.056;2023-06-10T06:59:19;24.60;;;7.40;;
4112;SDS011;2070;51.042;7.056;2023-06-10T07:01:45;8.13;;;5.43;;
4112;SDS011;2070;51.042;7.056;2023-06-10T07:04:10;8.73;;;6.00;;
4112;SDS011;2070;51.042;7.056;2023-06-10T07:06:35;14.70;;;6.43;;
4112;SDS011;2070;51.042;7.056;2023-06-10T07:09:01;26.03;;;6.90;;
4112;SDS011;2070;51.042;7.056;2023-06-10T07:11:26;12.43;;;5.63;;
4112;SDS011;2070;51.042;7.056;2023-06-10T07:13:51;12.07;;;6.70;;
4112;SDS011;2070;51.042;7.056;2023-06-10T07:16:16;19.53;;;6.60;;
4112;SDS011;2070;51.042;7.056;2023-06-10T07:18:42;14.97;;;6.10;;
4112;SDS011;2070;51.042;7.056;2023-06-10T07:21:07;6.47;;;4.40;;
4112;SDS011;2070;51.042;7.056;2023-06-10T07:23:32;23.80;;;6.60;;
4112;SDS011;2070;51.042;7.056;2023-06-10T07:25:57;10.33;;;5.27;;
4112;SDS011;2070;51.042;7.056;2023-06-10T07:28:22;14.77;;;5.27;;
4112;SDS011;2070;51.042;7.056;2023-06-10T07:30:48;23.83;;;6.43;;
4112;SDS011;2070;51.042;7.056;2023-06-10T07:33:13;14.93;;;5.50;;
4112;SDS011;2070;51.042;7.056;2023-06-10T07:35:38;18.47;;;6.53;;
4112;SDS011;2070;51.042;7.056;2023-06-10T07:38:03;19.50;;;6.60;;
4112;SDS011;2070;51.042;7.056;2023-06-10T07:40:28;13.93;;;5.60;;
4112;SDS011;2070;51.042;7.056;2023-06-10T07:42:54;13.53;;;6.20;;
4112;SDS011;2070;51.042;7.056;2023-06-10T07:45:20;12.80;;;5.30;;
4112;SDS011;2070;51.042;7.056;2023-06-10T07:47:45;23.43;;;6.63;;
4112;SDS011;2070;51.042;7.056;2023-06-10T07:50:10;22.87;;;5.53;;
4112;SDS011;2070;51.042;7.056;2023-06-10T07:52:35;20.00;;;5.87;;
4112;SDS011;2070;51.042;7.056;2023-06-10T07:55:01;25.20;;;5.80;;
4112;SDS011;2070;51.042;7.056;2023-06-10T07:57:26;13.00;;;4.70;;
4112;SDS011;2070;51.042;7.056;2023-06-10T07:59:51;22.57;;;5.30;;
4112;SDS011;2070;51.042;7.056;2023-06-10T08:02:17;29.50;;;6.37;;
4112;SDS011;2070;51.042;7.056;2023-06-10T08:04:42;23.27;;;5.43;;
4112;SDS011;2070;51.042;7.056;2023-06-10T08:07:07;22.23;;;5.00;;
4112;SDS011;2070;51.042;7.056;2023-06-10T08:09:32;24.57;;;6.70;;
4112;SDS011;2070;51.042;7.056;2023-06-10T08:11:57;26.70;;;6.50;;
4112;SDS011;2070;51.042;7.056;2023-06-10T08:14:23;22.00;;;6.13;;
4112;SDS011;2070;51.042;7.056;2023-06-10T08:16:48;18.33;;;5.77;;
4112;SDS011;2070;51.042;7.056;2023-06-10T08:19:14;18.47;;;6.27;;
4112;SDS011;2070;51.042;7.056;2023-06-10T08:21:39;14.07;;;5.60;;
4112;SDS011;2070;51.042;7.056;2023-06-10T08:24:09;19.13;;;6.20;;
4112;SDS011;2070;51.042;7.056;2023-06-10T08:26:34;16.60;;;4.83;;
4112;SDS011;2070;51.042;7.056;2023-06-10T08:29:00;18.97;;;6.10;;
4112;SDS011;2070;51.042;7.056;2023-06-10T08:31:25;30.87;;;7.43;;
4112;SDS011;2070;51.042;7.056;2023-06-10T08:33:50;25.47;;;6.90;;
4112;SDS011;2070;51.042;7.056;2023-06-10T08:36:15;21.53;;;6.17;;
4112;SDS011;2070;51.042;7.056;2023-06-10T08:38:40;33.07;;;7.80;;
4112;SDS011;2070;51.042;7.056;2023-06-10T08:41:06;32.03;;;7.30;;
4112;SDS011;2070;51.042;7.056;2023-06-10T08:43:45;35.13;;;7.00;;
4112;SDS011;2070;51.042;7.056;2023-06-10T08:46:13;20.40;;;5.63;;
4112;SDS011;2070;51.042;7.056;2023-06-10T08:48:41;32.07;;;5.97;;
4112;SDS011;2070;51.042;7.056;2023-06-10T08:51:07;30.47;;;6.10;;
4112;SDS011;2070;51.042;7.056;2023-06-10T08:53:33;17.17;;;5.33;;
4112;SDS011;2070;51.042;7.056;2023-06-10T08:56:01;33.20;;;6.70;;
4112;SDS011;2070;51.042;7.056;2023-06-10T08:58:29;40.20;;;7.50;;
4112;SDS011;2070;51.042;7.056;2023-06-10T09:00:54;32.93;;;6.40;;
4112;SDS011;2070;51.042;7.056;2023-06-10T09:03:20;43.17;;;7.70;;
4112;SDS011;2070;51.042;7.056;2023-06-10T09:05:46;36.73;;;6.87;;
4112;SDS011;2070;51.042;7.056;2023-06-10T09:08:11;25.63;;;6.50;;
4112;SDS011;2070;51.042;7.056;2023-06-10T09:10:37;20.13;;;5.60;;
4112;SDS011;2070;51.042;7.056;2023-06-10T09:13:03;25.73;;;6.40;;
4112;SDS011;2070;51.042;7.056;2023-06-10T09:15:28;29.80;;;6.83;;
4112;SDS011;2070;51.042;7.056;2023-06-10T09:17:53;20.03;;;5.17;;
4112;SDS011;2070;51.042;7.056;2023-06-10T09:20:18;30.13;;;6.27;;
4112;SDS011;2070;51.042;7.056;2023-06-10T09:22:44;44.13;;;7.83;;
4112;SDS011;2070;51.042;7.056;2023-06-10T09:25:12;27.50;;;6.53;;
4112;SDS011;2070;51.042;7.056;2023-06-10T09:27:47;24.83;;;6.27;;
4112;SDS011;2070;51.042;7.056;2023-06-10T09:30:27;36.77;;;7.13;;
4112;SDS011;2070;51.042;7.056;2023-06-10T09:32:54;40.10;;;7.40;;
4112;SDS011;2070;51.042;7.056;2023-06-10T09:35:21;33.70;;;6.07;;
4112;SDS011;2070;51.042;7.056;2023-06-10T09:37:46;30.17;;;7.57;;
4112;SDS011;2070;51.042;7.056;2023-06-10T09:40:11;22.83;;;5.83;;
4112;SDS011;2070;51.042;7.056;2023-06-10T09:42:37;60.33;;;9.40;;
4112;SDS011;2070;51.042;7.056;2023-06-10T09:45:03;23.83;;;5.87;;
4112;SDS011;2070;51.042;7.056;2023-06-10T09:47:28;21.43;;;5.97;;
4112;SDS011;2070;51.042;7.056;2023-06-10T09:49:54;30.93;;;6.70;;
4112;SDS011;2070;51.042;7.056;2023-06-10T09:52:26;61.93;;;7.87;;
4112;SDS011;2070;51.042;7.056;2023-06-10T09:54:52;36.20;;;6.80;;
4112;SDS011;2070;51.042;7.056;2023-06-10T09:57:17;56.37;;;7.70;;
4112;SDS011;2070;51.042;7.056;2023-06-10T09:59:42;43.10;;;7.00;;
4112;SDS011;2070;51.042;7.056;2023-06-10T10:02:14;24.93;;;5.53;;
4112;SDS011;2070;51.042;7.056;2023-06-10T10:04:40;45.60;;;7.73;;
4112;SDS011;2070;51.042;7.056;2023-06-10T10:07:05;24.30;;;6.30;;
4112;SDS011;2070;51.042;7.056;2023-06-10T10:09:32;18.40;;;5.60;;
4112;SDS011;2070;51.042;7.056;2023-06-10T10:11:57;17.20;;;5.30;;
4112;SDS011;2070;51.042;7.056;2023-06-10T10:14:22;12.63;;;5.47;;
4112;SDS011;2070;51.042;7.056;2023-06-10T10:16:48;37.20;;;8.47;;
4112;SDS011;2070;51.042;7.056;2023-06-10T10:19:16;28.73;;;6.37;;
4112;SDS011;2070;51.042;7.056;2023-06-10T10:21:44;28.00;;;7.10;;
4112;SDS011;2070;51.042;7.056;2023-06-10T10:24:23;34.93;;;7.17;;
4112;SDS011;2070;51.042;7.056;2023-06-10T10:26:51;27.77;;;7.10;;
4112;SDS011;2070;51.042;7.056;2023-06-10T10:29:26;30.70;;;6.43;;
4112;SDS011;2070;51.042;7.056;2023-06-10T10:31:54;21.60;;;5.93;;
4112;SDS011;2070;51.042;7.056;2023-06-10T10:34:21;21.20;;;5.60;;
4112;SDS011;2070;51.042;7.056;2023-06-10T10:36:49;23.23;;;6.17;;
4112;SDS011;2070;51.042;7.056;2023-06-10T10:39:15;24.50;;;7.13;;
4112;SDS011;2070;51.042;7.056;2023-06-10T10:41:40;22.23;;;6.20;;
4112;SDS011;2070;51.042;7.056;2023-06-10T10:44:06;30.53;;;5.60;;
4112;SDS011;2070;51.042;7.056;2023-06-10T10:46:41;25.77;;;8.80;;
4112;SDS011;2070;51.042;7.056;2023-06-10T10:49:07;16.27;;;6.63;;
4112;SDS011;2070;51.042;7.056;2023-06-10T10:51:35;15.43;;;6.20;;
4112;SDS011;2070;51.042;7.056;2023-06-10T10:54:14;20.03;;;6.80;;
4112;SDS011;2070;51.042;7.056;2023-06-10T10:56:39;20.13;;;5.80;;
4112;SDS011;2070;51.042;7.056;2023-06-10T10:59:05;17.83;;;5.90;;
4112;SDS011;2070;51.042;7.056;2023-06-10T11:01:43;26.80;;;6.50;;
4112;SDS011;2070;51.042;7.056;2023-06-10T11:04:11;16.23;;;5.53;;
4112;SDS011;2070;51.042;7.056;2023-06-10T11:06:38;21.27;;;6.70;;
4112;SDS011;2070;51.042;7.056;2023-06-10T11:11:51;19.87;;;6.07;;
4112;SDS011;2070;51.042;7.056;2023-06-10T11:14:16;15.50;;;5.90;;
4112;SDS011;2070;51.042;7.056;2023-06-10T11:16:50;12.87;;;5.53;;
4112;SDS011;2070;51.042;7.056;2023-06-10T11:19:33;11.70;;;5.43;;
4112;SDS011;2070;51.042;7.056;2023-06-10T11:22:02;15.23;;;5.33;;
4112;SDS011;2070;51.042;7.056;2023-06-10T11:24:30;11.57;;;5.03;;
4112;SDS011;2070;51.042;7.056;2023-06-10T11:27:14;12.83;;;6.30;;
4112;SDS011;2070;51.042;7.056;2023-06-10T11:29:39;12.30;;;5.40;;
4112;SDS011;2070;51.042;7.056;2023-06-10T11:32:05;11.63;;;5.37;;
4112;SDS011;2070;51.042;7.056;2023-06-10T11:34:31;12.53;;;5.20;;
4112;SDS011;2070;51.042;7.056;2023-06-10T11:36:56;24.70;;;6.20;;
4112;SDS011;2070;51.042;7.056;2023-06-10T11:39:22;18.73;;;6.20;;
4112;SDS011;2070;51.042;7.056;2023-06-10T11:41:49;17.60;;;6.43;;
4112;SDS011;2070;51.042;7.056;2023-06-10T11:44:15;28.40;;;8.10;;
4112;SDS011;2070;51.042;7.056;2023-06-10T11:46:41;21.10;;;7.03;;
4112;SDS011;2070;51.042;7.056;2023-06-10T11:49:07;22.63;;;6.60;;
4112;SDS011;2070;51.042;7.056;2023-06-10T11:51:39;30.03;;;7.30;;
4112;SDS011;2070;51.042;7.056;2023-06-10T11:54:07;12.70;;;5.70;;
4112;SDS011;2070;51.042;7.056;2023-06-10T11:56:33;17.40;;;6.03;;
4112;SDS011;2070;51.042;7.056;2023-06-10T11:58:59;23.73;;;7.47;;
4112;SDS011;2070;51.042;7.056;2023-06-10T12:01:29;25.63;;;6.53;;
4112;SDS011;2070;51.042;7.056;2023-06-10T12:04:27;32.60;;;7.80;;
4112;SDS011;2070;51.042;7.056;2023-06-10T12:06:50;18.67;;;6.47;;
4112;SDS011;2070;51.042;7.056;2023-06-10T12:09:22;21.10;;;7.13;;
4112;SDS011;2070;51.042;7.056;2023-06-10T12:11:48;16.07;;;5.80;;
4112;SDS011;2070;51.042;7.056;2023-06-10T12:14:15;15.63;;;5.60;;
4112;SDS011;2070;51.042;7.056;2023-06-10T12:16:40;28.10;;;6.57;;
4112;SDS011;2070;51.042;7.056;2023-06-10T12:19:05;25.47;;;7.20;;
4112;SDS011;2070;51.042;7.056;2023-06-10T12:21:32;47.30;;;7.37;;
4112;SDS011;2070;51.042;7.056;2023-06-10T12:24:04;22.30;;;6.50;;
4112;SDS011;2070;51.042;7.056;2023-06-10T12:26:42;19.20;;;6.40;;
4112;SDS011;2070;51.042;7.056;2023-06-10T12:29:16;27.90;;;6.63;;
4112;SDS011;2070;51.042;7.056;2023-06-10T12:31:52;32.03;;;7.60;;
4112;SDS011;2070;51.042;7.056;2023-06-10T12:34:17;19.70;;;5.60;;
4112;SDS011;2070;51.042;7.056;2023-06-10T12:36:47;15.87;;;6.50;;
4112;SDS011;2070;51.042;7.056;2023-06-10T12:39:13;15.50;;;5.33;;
4112;SDS011;2070;51.042;7.056;2023-06-10T12:41:38;17.83;;;6.60;;
4112;SDS011;2070;51.042;7.056;2023-06-10T12:44:04;12.13;;;5.40;;
4112;SDS011;2070;51.042;7.056;2023-06-10T12:46:35;22.50;;;6.47;;
4112;SDS011;2070;51.042;7.056;2023-06-10T12:49:00;24.83;;;6.30;;
4112;SDS011;2070;51.042;7.056;2023-06-10T12:51:25;16.37;;;5.87;;
4112;SDS011;2070;51.042;7.056;2023-06-10T12:53:51;25.23;;;6.87;;
4112;SDS011;2070;51.042;7.056;2023-06-10T12:56:17;21.23;;;6.70;;
4112;SDS011;2070;51.042;7.056;2023-06-10T12:58:42;23.83;;;6.17;;
4112;SDS011;2070;51.042;7.056;2023-06-10T13:01:07;18.60;;;6.70;;
4112;SDS011;2070;51.042;7.056;2023-06-10T13:03:32;18.30;;;5.57;;
4112;SDS011;2070;51.042;7.056;2023-06-10T13:05:58;24.07;;;6.30;;
4112;SDS011;2070;51.042;7.056;2023-06-10T13:08:23;16.13;;;6.27;;
4112;SDS011;2070;51.042;7.056;2023-06-10T13:10:48;24.63;;;6.40;;
4112;SDS011;2070;51.042;7.056;2023-06-10T13:13:13;19.43;;;5.70;;
4112;SDS011;2070;51.042;7.056;2023-06-10T13:15:39;18.93;;;5.83;;
4112;SDS011;2070;51.042;7.056;2023-06-10T13:18:05;19.43;;;5.87;;
4112;SDS011;2070;51.042;7.056;2023-06-10T13:20:30;24.13;;;6.53;;
4112;SDS011;2070;51.042;7.056;2023-06-10T13:22:55;16.50;;;6.13;;
4112;SDS011;2070;51.042;7.056;2023-06-10T13:25:21;21.53;;;6.40;;
4112;SDS011;2070;51.042;7.056;2023-06-10T13:27:46;17.87;;;5.60;;
4112;SDS011;2070;51.042;7.056;2023-06-10T13:30:11;18.47;;;5.60;;
4112;SDS011;2070;51.042;7.056;2023-06-10T13:32:37;35.67;;;7.90;;
4112;SDS011;2070;51.042;7.056;2023-06-10T13:35:02;21.80;;;7.00;;
4112;SDS011;2070;51.042;7.056;2023-06-10T13:37:28;28.17;;;6.57;;
4112;SDS011;2070;51.042;7.056;2023-06-10T13:39:53;23.20;;;6.20;;
4112;SDS011;2070;51.042;7.056;2023-06-10T13:42:18;21.53;;;6.53;;
4112;SDS011;2070;51.042;7.056;2023-06-10T13:44:44;16.17;;;5.63;;
4112;SDS011;2070;51.042;7.056;2023-06-10T13:47:09;23.67;;;6.20;;
4112;SDS011;2070;51.042;7.056;2023-06-10T13:49:34;22.10;;;6.00;;
4112;SDS011;2070;51.042;7.056;2023-06-10T13:52:00;27.67;;;6.00;;
4112;SDS011;2070;51.042;7.056;2023-06-10T13:54:25;19.37;;;6.10;;
4112;SDS011;2070;51.042;7.056;2023-06-10T13:56:52;34.13;;;6.87;;
4112;SDS011;2070;51.042;7.056;2023-06-10T13:59:18;17.43;;;5.17;;
4112;SDS011;2070;51.042;7.056;2023-06-10T14:01:43;16.60;;;5.57;;
4112;SDS011;2070;51.042;7.056;2023-06-10T14:04:08;14.50;;;5.00;;
4112;SDS011;2070;51.042;7.056;2023-06-10T14:06:34;20.50;;;5.87;;
4112;SDS011;2070;51.042;7.056;2023-06-10T14:08:59;22.93;;;6.10;;
4112;SDS011;2070;51.042;7.056;2023-06-10T14:11:24;16.47;;;5.10;;
4112;SDS011;2070;51.042;7.056;2023-06-10T14:13:50;14.60;;;5.53;;
4112;SDS011;2070;51.042;7.056;2023-06-10T14:16:15;23.87;;;5.33;;
4112;SDS011;2070;51.042;7.056;2023-06-10T14:18:40;36.70;;;7.00;;
4112;SDS011;2070;51.042;7.056;2023-06-10T14:21:05;22.07;;;5.93;;
4112;SDS011;2070;51.042;7.056;2023-06-10T14:23:30;32.60;;;6.73;;
4112;SDS011;2070;51.042;7.056;2023-06-10T14:25:55;17.90;;;4.53;;
4112;SDS011;2070;51.042;7.056;2023-06-10T14:28:21;21.50;;;5.30;;
4112;SDS011;2070;51.042;7.056;2023-06-10T14:30:46;20.60;;;6.20;;
4112;SDS011;2070;51.042;7.056;2023-06-10T14:33:11;13.77;;;5.23;;
4112;SDS011;2070;51.042;7.056;2023-06-10T14:35:36;43.13;;;7.70;;
4112;SDS011;2070;51.042;7.056;2023-06-10T14:38:02;23.73;;;6.60;;
4112;SDS011;2070;51.042;7.056;2023-06-10T14:40:27;31.90;;;6.20;;
4112;SDS011;2070;51.042;7.056;2023-06-10T14:42:54;23.73;;;6.00;;
4112;SDS011;2070;51.042;7.056;2023-06-10T14:45:19;20.93;;;6.00;;
4112;SDS011;2070;51.042;7.056;2023-06-10T14:47:44;26.13;;;5.13;;
4112;SDS011;2070;51.042;7.056;2023-06-10T14:50:11;24.80;;;5.33;;
4112;SDS011;2070;51.042;7.056;2023-06-10T14:52:37;31.70;;;7.17;;
4112;SDS011;2070;51.042;7.056;2023-06-10T14:55:02;38.87;;;6.33;;
4112;SDS011;2070;51.042;7.056;2023-06-10T14:57:28;28.23;;;6.47;;
4112;SDS011;2070;51.042;7.056;2023-06-10T14:59:53;36.47;;;6.50;;
4112;SDS011;2070;51.042;7.056;2023-06-10T15:02:20;23.13;;;5.63;;
4112;SDS011;2070;51.042;7.056;2023-06-10T15:04:45;24.27;;;4.83;;
4112;SDS011;2070;51.042;7.056;2023-06-10T15:07:11;13.53;;;4.30;;